Time;durP1;ratioP1;P1;durP2;ratioP2;P2;SDS_P1;SDS_P2;PMS_P1;PMS_P2;Temp;Humidity;BMP_temperature;BMP_pressure;BME280_temperature;BME280_humidity;BME280_pressure;Samples;Min_cycle;Max_cycle;Signal;HPM_P1;HPM_P2
2022/10/23 00:00:39;;;;;;;53.63;27.92;;;;;;;;;;5024616;28;20038;-59
2022/10/23 00:03:06;;;;;;;59.90;28.05;;;;;;;;;;5019625;28;20052;-61
2022/10/23 00:05:33;;;;;;;46.97;25.00;;;;;;;;;;5019682;28;20080;-59
2022/10/23 00:08:00;;;;;;;58.22;25.25;;;;;;;;;;5023556;28;20034;-61
2022/10/23 00:10:28;;;;;;;53.83;25.40;;;;;;;;;;5022103;28;20033;-61
2022/10/23 00:12:55;;;;;;;50.88;24.90;;;;;;;;;;5022564;28;20553;-60
2022/10/23 00:15:23;;;;;;;50.63;24.60;;;;;;;;;;5023551;28;20045;-60
2022/10/23 00:17:50;;;;;;;49.42;23.75;;;;;;;;;;5022196;28;20079;-60
2022/10/23 00:20:17;;;;;;;49.55;24.00;;;;;;;;;;5021794;28;20057;-60
2022/10/23 00:22:44;;;;;;;43.88;23.48;;;;;;;;;;5023424;28;20037;-60
2022/10/23 00:25:11;;;;;;;45.83;22.88;;;;;;;;;;5021980;28;20048;-60
2022/10/23 00:27:39;;;;;;;37.53;22.27;;;;;;;;;;5020688;28;20078;-60
2022/10/23 00:30:06;;;;;;;43.78;22.55;;;;;;;;;;5016995;28;20021;-60
2022/10/23 00:32:33;;;;;;;42.67;22.58;;;;;;;;;;5022287;28;20026;-61
2022/10/23 00:35:00;;;;;;;41.60;22.33;;;;;;;;;;5021337;28;20025;-60
2022/10/23 00:37:27;;;;;;;39.80;20.90;;;;;;;;;;5018147;28;20112;-59
2022/10/23 00:39:54;;;;;;;47.10;20.85;;;;;;;;;;5017110;28;20060;-59
2022/10/23 00:42:21;;;;;;;41.03;21.42;;;;;;;;;;5021458;28;20037;-59
2022/10/23 00:44:48;;;;;;;39.72;20.95;;;;;;;;;;5021599;28;20025;-58
2022/10/23 00:47:15;;;;;;;40.88;21.13;;;;;;;;;;5020821;28;20041;-61
2022/10/23 00:49:42;;;;;;;40.42;19.30;;;;;;;;;;5028016;28;20029;-61
2022/10/23 00:52:11;;;;;;;39.47;19.65;;;;;;;;;;5026115;28;20501;-60
2022/10/23 00:54:40;;;;;;;39.42;19.35;;;;;;;;;;5024781;28;20029;-60
2022/10/23 00:57:09;;;;;;;39.40;18.88;;;;;;;;;;5029545;28;20029;-59
2022/10/23 00:59:36;;;;;;;41.08;20.23;;;;;;;;;;5026137;28;20029;-57
2022/10/23 01:02:04;;;;;;;40.35;19.17;;;;;;;;;;5030948;28;20033;-58
2022/10/23 01:04:31;;;;;;;44.88;19.17;;;;;;;;;;5029148;28;20034;-58
2022/10/23 01:07:08;;;;;;;37.20;19.33;;;;;;;;;;5021841;28;20037;-58
2022/10/23 01:09:39;;;;;;;38.17;18.23;;;;;;;;;;5024692;28;20032;-57
2022/10/23 01:12:09;;;;;;;35.92;17.63;;;;;;;;;;5029531;28;20033;-59
2022/10/23 01:14:42;;;;;;;36.70;17.70;;;;;;;;;;5028971;28;20090;-60
2022/10/23 01:17:18;;;;;;;33.05;16.40;;;;;;;;;;5029734;28;20029;-58
2022/10/23 01:20:07;;;;;;;37.30;17.35;;;;;;;;;;5028632;28;20034;-59
2022/10/23 01:22:34;;;;;;;28.17;15.68;;;;;;;;;;5023714;28;20462;-55
2022/10/23 01:25:04;;;;;;;38.05;16.98;;;;;;;;;;5025856;28;20059;-58
2022/10/23 01:27:33;;;;;;;42.03;17.95;;;;;;;;;;5026298;28;20044;-61
2022/10/23 01:30:06;;;;;;;41.85;17.13;;;;;;;;;;5026957;28;20053;-58
2022/10/23 01:32:39;;;;;;;34.17;16.08;;;;;;;;;;5028018;28;20025;-57
2022/10/23 01:35:13;;;;;;;36.60;17.48;;;;;;;;;;5030709;28;20724;-57
2022/10/23 01:37:42;;;;;;;31.50;15.35;;;;;;;;;;5027712;28;20032;-57
2022/10/23 01:40:13;;;;;;;35.50;16.15;;;;;;;;;;5024378;28;20041;-58
2022/10/23 01:42:43;;;;;;;44.55;22.35;;;;;;;;;;5017796;28;20041;-58
2022/10/23 01:45:17;;;;;;;45.28;22.02;;;;;;;;;;5011611;28;20022;-59
2022/10/23 01:47:45;;;;;;;42.88;21.42;;;;;;;;;;5014317;28;20087;-58
2022/10/23 01:50:14;;;;;;;39.55;19.65;;;;;;;;;;5018166;28;20069;-59
2022/10/23 01:52:41;;;;;;;40.03;21.05;;;;;;;;;;5000977;28;20396;-58
2022/10/23 01:55:10;;;;;;;40.42;20.15;;;;;;;;;;5030863;28;20064;-57
2022/10/23 01:57:39;;;;;;;40.72;21.02;;;;;;;;;;5025695;28;20025;-58
2022/10/23 02:00:11;;;;;;;37.42;19.92;;;;;;;;;;5017082;28;20057;-58
2022/10/23 02:02:39;;;;;;;44.42;20.58;;;;;;;;;;5014597;28;20040;-59
2022/10/23 02:05:06;;;;;;;38.28;18.52;;;;;;;;;;5020834;28;20036;-59
2022/10/23 02:07:34;;;;;;;39.03;18.75;;;;;;;;;;5012228;28;20034;-59
2022/10/23 02:10:02;;;;;;;35.75;18.27;;;;;;;;;;5012141;28;20034;-59
2022/10/23 02:12:33;;;;;;;35.67;18.00;;;;;;;;;;5011982;28;20176;-59
2022/10/23 02:15:11;;;;;;;31.77;16.93;;;;;;;;;;5026870;28;20057;-57
2022/10/23 02:17:56;;;;;;;39.05;17.35;;;;;;;;;;5022054;28;20042;-58
2022/10/23 02:20:29;;;;;;;32.50;16.33;;;;;;;;;;5011497;28;20052;-59
2022/10/23 02:23:02;;;;;;;29.52;15.88;;;;;;;;;;5011956;28;20046;-58
2022/10/23 02:25:36;;;;;;;30.55;15.32;;;;;;;;;;5011867;28;20083;-59
2022/10/23 02:28:07;;;;;;;29.67;15.15;;;;;;;;;;5016730;28;20034;-58
2022/10/23 02:30:35;;;;;;;32.70;15.20;;;;;;;;;;5017943;28;20040;-59
2022/10/23 02:33:03;;;;;;;31.70;14.60;;;;;;;;;;5029366;28;20029;-55
2022/10/23 02:35:30;;;;;;;29.23;14.30;;;;;;;;;;5021472;28;20418;-58
2022/10/23 02:37:58;;;;;;;29.75;14.50;;;;;;;;;;5007894;28;20386;-59
2022/10/23 02:40:29;;;;;;;28.40;13.25;;;;;;;;;;5011631;28;20084;-58
2022/10/23 02:43:03;;;;;;;26.13;14.82;;;;;;;;;;5015260;28;20041;-57
2022/10/23 02:45:36;;;;;;;29.33;12.93;;;;;;;;;;5019487;28;20124;-59
2022/10/23 02:48:19;;;;;;;23.65;12.20;;;;;;;;;;5019140;28;20060;-60
2022/10/23 02:50:51;;;;;;;22.77;11.95;;;;;;;;;;5021117;28;20049;-60
2022/10/23 02:53:41;;;;;;;22.70;12.07;;;;;;;;;;5022064;28;20033;-58
2022/10/23 02:56:08;;;;;;;21.27;11.50;;;;;;;;;;5023353;28;20163;-58
2022/10/23 02:58:48;;;;;;;23.92;11.98;;;;;;;;;;5030945;28;20091;-59
2022/10/23 03:01:20;;;;;;;18.83;10.70;;;;;;;;;;5030514;28;20036;-57
2022/10/23 03:03:52;;;;;;;21.80;10.85;;;;;;;;;;5027875;28;20091;-54
2022/10/23 03:06:20;;;;;;;22.55;10.57;;;;;;;;;;5030662;28;20025;-56
2022/10/23 03:08:53;;;;;;;22.27;10.40;;;;;;;;;;5030084;28;20167;-57
2022/10/23 03:11:20;;;;;;;20.38;9.43;;;;;;;;;;5011658;28;20044;-59
2022/10/23 03:13:47;;;;;;;17.58;9.07;;;;;;;;;;5011561;28;20119;-56
2022/10/23 03:16:14;;;;;;;17.48;9.38;;;;;;;;;;5010852;28;20033;-58
2022/10/23 03:18:41;;;;;;;20.15;9.15;;;;;;;;;;5022293;28;20025;-58
2022/10/23 03:21:08;;;;;;;15.15;8.55;;;;;;;;;;5019631;28;20050;-58
2022/10/23 03:23:35;;;;;;;18.65;8.63;;;;;;;;;;5014994;28;20037;-55
2022/10/23 03:26:02;;;;;;;16.95;8.55;;;;;;;;;;5020473;28;20042;-57
2022/10/23 03:28:29;;;;;;;21.00;8.82;;;;;;;;;;5011346;28;20041;-59
2022/10/23 03:30:56;;;;;;;19.80;8.43;;;;;;;;;;5011477;28;20092;-58
2022/10/23 03:33:23;;;;;;;14.77;8.10;;;;;;;;;;5015108;28;20025;-58
2022/10/23 03:35:50;;;;;;;18.15;8.23;;;;;;;;;;5017269;28;20045;-55
2022/10/23 03:38:17;;;;;;;19.23;8.88;;;;;;;;;;5014790;28;20068;-58
2022/10/23 03:40:43;;;;;;;17.20;7.88;;;;;;;;;;5014767;28;20030;-58
2022/10/23 03:43:10;;;;;;;15.05;7.90;;;;;;;;;;5014816;28;20484;-59
2022/10/23 03:45:37;;;;;;;16.10;7.38;;;;;;;;;;5014985;28;20030;-58
2022/10/23 03:48:05;;;;;;;13.38;7.30;;;;;;;;;;5014616;28;20445;-59
2022/10/23 03:50:32;;;;;;;16.33;7.40;;;;;;;;;;5014843;28;20054;-59
2022/10/23 03:52:59;;;;;;;16.10;6.97;;;;;;;;;;5014696;28;20030;-58
2022/10/23 03:55:26;;;;;;;15.10;6.85;;;;;;;;;;5020216;28;20080;-59
2022/10/23 03:57:53;;;;;;;16.75;7.75;;;;;;;;;;5034504;28;20037;-58
2022/10/23 04:00:20;;;;;;;14.70;6.78;;;;;;;;;;5030742;28;20038;-57
2022/10/23 04:02:47;;;;;;;17.48;6.53;;;;;;;;;;5016052;28;20032;-58
2022/10/23 04:05:15;;;;;;;13.95;6.65;;;;;;;;;;5014667;28;20113;-59
2022/10/23 04:07:42;;;;;;;18.15;6.18;;;;;;;;;;5014428;28;20034;-58
2022/10/23 04:10:09;;;;;;;11.70;6.40;;;;;;;;;;5014620;28;20029;-56
2022/10/23 04:12:36;;;;;;;11.15;6.38;;;;;;;;;;5014265;28;20041;-59
2022/10/23 04:15:03;;;;;;;11.30;5.80;;;;;;;;;;5014435;28;20026;-54
2022/10/23 04:17:30;;;;;;;12.00;5.97;;;;;;;;;;5014380;28;20022;-58
2022/10/23 04:19:57;;;;;;;15.00;6.63;;;;;;;;;;5014039;28;20030;-58
2022/10/23 04:22:24;;;;;;;13.82;6.25;;;;;;;;;;5014346;28;20038;-57
2022/10/23 04:24:51;;;;;;;10.77;6.13;;;;;;;;;;5014244;28;20058;-57
2022/10/23 04:27:18;;;;;;;13.68;6.00;;;;;;;;;;5014097;28;20033;-58
2022/10/23 04:29:45;;;;;;;11.75;5.95;;;;;;;;;;5014130;28;20113;-54
2022/10/23 04:32:12;;;;;;;9.50;5.45;;;;;;;;;;5014072;28;20080;-56
2022/10/23 04:34:39;;;;;;;11.85;5.78;;;;;;;;;;5013991;28;20034;-56
2022/10/23 04:37:06;;;;;;;10.38;5.18;;;;;;;;;;5013964;28;20022;-59
2022/10/23 04:39:33;;;;;;;9.85;5.18;;;;;;;;;;5013947;28;20053;-57
2022/10/23 04:41:59;;;;;;;10.50;5.25;;;;;;;;;;5013579;28;20034;-58
2022/10/23 04:44:26;;;;;;;9.82;4.60;;;;;;;;;;5013852;28;20506;-59
2022/10/23 04:46:53;;;;;;;8.32;5.07;;;;;;;;;;5013768;28;20033;-58
2022/10/23 04:49:20;;;;;;;9.30;4.63;;;;;;;;;;5013747;28;20026;-58
2022/10/23 04:51:47;;;;;;;10.70;4.97;;;;;;;;;;5013551;28;20493;-57
2022/10/23 04:54:14;;;;;;;10.57;5.03;;;;;;;;;;5013697;28;20033;-59
2022/10/23 04:56:41;;;;;;;10.15;4.45;;;;;;;;;;5027503;28;20032;-58
2022/10/23 04:59:08;;;;;;;9.63;4.80;;;;;;;;;;5013611;28;20476;-58
2022/10/23 05:01:35;;;;;;;7.75;4.10;;;;;;;;;;5013574;28;20030;-58
2022/10/23 05:04:03;;;;;;;10.57;4.75;;;;;;;;;;5013396;28;20046;-55
2022/10/23 05:06:30;;;;;;;8.02;4.38;;;;;;;;;;5013389;28;20049;-58
2022/10/23 05:08:57;;;;;;;8.80;4.15;;;;;;;;;;5013344;28;20024;-59
2022/10/23 05:11:24;;;;;;;7.03;3.95;;;;;;;;;;5006855;28;20464;-59
2022/10/23 05:13:51;;;;;;;9.73;3.83;;;;;;;;;;5015713;28;20018;-56
2022/10/23 05:16:36;;;;;;;8.35;4.25;;;;;;;;;;5013207;28;20034;-58
2022/10/23 05:19:04;;;;;;;8.18;3.75;;;;;;;;;;5013518;28;20036;-58
2022/10/23 05:21:34;;;;;;;5.60;3.60;;;;;;;;;;5022188;28;20184;-58
2022/10/23 05:24:01;;;;;;;8.10;4.10;;;;;;;;;;5012983;28;20480;-58
2022/10/23 05:26:29;;;;;;;8.02;3.80;;;;;;;;;;5012984;28;20488;-58
2022/10/23 05:28:56;;;;;;;8.05;3.67;;;;;;;;;;5012949;28;20126;-59
2022/10/23 05:31:24;;;;;;;6.82;3.60;;;;;;;;;;5013015;28;20029;-59
2022/10/23 05:33:52;;;;;;;7.05;3.53;;;;;;;;;;5012774;28;20494;-60
2022/10/23 05:36:19;;;;;;;7.22;3.25;;;;;;;;;;5012932;28;20045;-58
2022/10/23 05:38:46;;;;;;;6.40;3.03;;;;;;;;;;5013085;28;20487;-55
2022/10/23 05:41:13;;;;;;;6.85;3.72;;;;;;;;;;5012736;28;20091;-58
2022/10/23 05:43:40;;;;;;;5.53;3.08;;;;;;;;;;5012649;28;20056;-58
2022/10/23 05:46:07;;;;;;;6.07;3.25;;;;;;;;;;5012628;28;20022;-56
2022/10/23 05:48:34;;;;;;;4.72;3.00;;;;;;;;;;5012790;28;20037;-58
2022/10/23 05:51:05;;;;;;;5.95;2.97;;;;;;;;;;5012626;28;20022;-59
2022/10/23 05:53:32;;;;;;;5.60;2.97;;;;;;;;;;5012538;28;20084;-57
2022/10/23 05:56:08;;;;;;;7.15;3.47;;;;;;;;;;5004678;28;20033;-58
2022/10/23 05:58:35;;;;;;;5.63;2.83;;;;;;;;;;5014502;28;20571;-59
2022/10/23 06:01:09;;;;;;;6.65;2.88;;;;;;;;;;5010411;28;20067;-59
2022/10/23 06:03:37;;;;;;;3.58;2.35;;;;;;;;;;5012304;28;20052;-58
2022/10/23 06:06:04;;;;;;;4.47;2.70;;;;;;;;;;5012338;28;20030;-59
2022/10/23 06:08:32;;;;;;;6.40;2.58;;;;;;;;;;5012311;28;20547;-59
2022/10/23 06:10:59;;;;;;;4.82;2.13;;;;;;;;;;5012008;28;20380;-58
2022/10/23 06:13:26;;;;;;;4.57;2.42;;;;;;;;;;5012303;28;20029;-56
2022/10/23 06:15:52;;;;;;;5.50;2.30;;;;;;;;;;5012244;28;20029;-59
2022/10/23 06:18:19;;;;;;;4.30;2.20;;;;;;;;;;5012201;28;20026;-54
2022/10/23 06:20:46;;;;;;;3.67;2.20;;;;;;;;;;5012046;28;20127;-56
2022/10/23 06:23:13;;;;;;;3.03;1.83;;;;;;;;;;5012028;28;20052;-59
2022/10/23 06:25:40;;;;;;;4.97;2.30;;;;;;;;;;5011889;28;20037;-58
2022/10/23 06:28:07;;;;;;;5.07;2.30;;;;;;;;;;5012238;28;20022;-58
2022/10/23 06:30:34;;;;;;;4.03;2.30;;;;;;;;;;5025897;28;20038;-58
2022/10/23 06:33:01;;;;;;;5.20;2.40;;;;;;;;;;5012081;28;20018;-58
2022/10/23 06:35:28;;;;;;;4.00;1.98;;;;;;;;;;5011844;28;20054;-58
2022/10/23 06:37:55;;;;;;;6.03;1.92;;;;;;;;;;5011774;28;20041;-59
2022/10/23 06:40:22;;;;;;;4.80;1.70;;;;;;;;;;4994422;28;20453;-59
2022/10/23 06:42:48;;;;;;;3.78;1.85;;;;;;;;;;5011822;28;20037;-58
2022/10/23 06:45:15;;;;;;;3.50;1.77;;;;;;;;;;5011856;28;20542;-58
2022/10/23 06:47:43;;;;;;;3.83;1.90;;;;;;;;;;5011833;28;20388;-61
2022/10/23 06:50:10;;;;;;;5.70;1.92;;;;;;;;;;5011963;28;20037;-58
2022/10/23 06:52:37;;;;;;;5.38;2.10;;;;;;;;;;5011643;28;20383;-58
2022/10/23 06:55:04;;;;;;;3.95;1.77;;;;;;;;;;5014457;28;20115;-57
2022/10/23 06:57:31;;;;;;;8.52;2.25;;;;;;;;;;5022624;28;20129;-59
2022/10/23 06:59:58;;;;;;;4.18;2.00;;;;;;;;;;5011828;28;20068;-58
2022/10/23 07:02:24;;;;;;;3.85;1.88;;;;;;;;;;5011654;28;20038;-56
2022/10/23 07:04:51;;;;;;;3.78;1.42;;;;;;;;;;4994062;28;20068;-59
2022/10/23 07:07:18;;;;;;;5.03;1.80;;;;;;;;;;5013919;28;20026;-58
2022/10/23 07:09:45;;;;;;;4.32;1.95;;;;;;;;;;5015672;28;20036;-58
2022/10/23 07:12:12;;;;;;;4.60;1.92;;;;;;;;;;5015538;28;20495;-59
2022/10/23 07:14:39;;;;;;;5.00;1.80;;;;;;;;;;5015582;28;20033;-58
2022/10/23 07:17:06;;;;;;;3.17;1.60;;;;;;;;;;5015526;28;20029;-58
2022/10/23 07:19:33;;;;;;;2.53;1.70;;;;;;;;;;5015523;28;20038;-59
2022/10/23 07:22:00;;;;;;;2.67;1.42;;;;;;;;;;5015124;28;20136;-59
2022/10/23 07:24:27;;;;;;;3.25;1.58;;;;;;;;;;5015421;28;20155;-58
2022/10/23 07:26:54;;;;;;;2.55;1.52;;;;;;;;;;5015352;28;20131;-58
2022/10/23 07:29:21;;;;;;;2.38;1.40;;;;;;;;;;5015066;28;20034;-58
2022/10/23 07:31:48;;;;;;;3.33;1.48;;;;;;;;;;5015370;28;20066;-57
2022/10/23 07:34:15;;;;;;;2.88;1.42;;;;;;;;;;5015162;28;20025;-59
2022/10/23 07:36:42;;;;;;;4.80;1.40;;;;;;;;;;5015050;28;20392;-58
2022/10/23 07:39:10;;;;;;;1.88;0.95;;;;;;;;;;5011223;28;20029;-58
2022/10/23 07:41:37;;;;;;;2.88;1.45;;;;;;;;;;5015108;28;20582;-58
2022/10/23 07:44:04;;;;;;;3.00;1.30;;;;;;;;;;5014902;28;20132;-59
2022/10/23 07:46:31;;;;;;;2.42;1.20;;;;;;;;;;5015018;28;20041;-59
2022/10/23 07:48:58;;;;;;;3.08;1.30;;;;;;;;;;5014859;28;20033;-55
2022/10/23 07:51:25;;;;;;;3.40;1.13;;;;;;;;;;5014714;28;20088;-58
2022/10/23 07:53:52;;;;;;;2.90;1.38;;;;;;;;;;5014948;28;20383;-59
2022/10/23 07:56:31;;;;;;;4.97;1.55;;;;;;;;;;5027638;28;20491;-58
2022/10/23 07:58:58;;;;;;;3.92;1.25;;;;;;;;;;5014858;28;20484;-58
2022/10/23 08:01:31;;;;;;;3.13;1.33;;;;;;;;;;5014654;28;20030;-58
2022/10/23 08:03:58;;;;;;;2.58;1.13;;;;;;;;;;5014623;28;20052;-58
2022/10/23 08:06:25;;;;;;;1.83;1.10;;;;;;;;;;5014568;28;20030;-56
2022/10/23 08:08:52;;;;;;;1.65;1.00;;;;;;;;;;5014560;28;20029;-58
2022/10/23 08:11:24;;;;;;;2.85;1.15;;;;;;;;;;5014652;28;20034;-63
2022/10/23 08:13:52;;;;;;;5.65;1.58;;;;;;;;;;5028247;28;20025;-58
2022/10/23 08:16:19;;;;;;;3.65;1.05;;;;;;;;;;5014302;28;20114;-57
2022/10/23 08:18:48;;;;;;;2.83;1.17;;;;;;;;;;5013837;28;20030;-59
2022/10/23 08:21:15;;;;;;;2.80;1.05;;;;;;;;;;5014117;28;20046;-59
2022/10/23 08:23:44;;;;;;;3.58;1.13;;;;;;;;;;5029290;28;20419;-57
2022/10/23 08:26:11;;;;;;;3.05;1.13;;;;;;;;;;5014241;28;20175;-56
2022/10/23 08:28:38;;;;;;;3.75;1.17;;;;;;;;;;5014323;28;20040;-59
2022/10/23 08:31:09;;;;;;;1.67;0.93;;;;;;;;;;5014037;28;20030;-58
2022/10/23 08:33:36;;;;;;;1.67;0.82;;;;;;;;;;5014208;28;20025;-56
2022/10/23 08:36:04;;;;;;;2.80;1.00;;;;;;;;;;5013964;28;20833;-56
2022/10/23 08:38:32;;;;;;;2.88;1.13;;;;;;;;;;5014041;28;20101;-59
2022/10/23 08:41:00;;;;;;;2.17;1.05;;;;;;;;;;5013847;28;20063;-58
2022/10/23 08:43:27;;;;;;;2.78;1.10;;;;;;;;;;5013874;28;20049;-58
2022/10/23 08:45:57;;;;;;;2.85;0.90;;;;;;;;;;5013745;28;20101;-56
2022/10/23 08:48:36;;;;;;;2.78;0.93;;;;;;;;;;5013837;28;20738;-58
2022/10/23 08:51:07;;;;;;;2.83;0.93;;;;;;;;;;5013738;28;20084;-56
2022/10/23 08:54:00;;;;;;;2.55;1.08;;;;;;;;;;5013865;28;20076;-58
2022/10/23 08:56:30;;;;;;;1.83;0.75;;;;;;;;;;5024845;28;20052;-59
2022/10/23 08:59:06;;;;;;;2.53;1.13;;;;;;;;;;5013682;28;20033;-59
2022/10/23 09:01:38;;;;;;;1.92;1.00;;;;;;;;;;5013453;28;20030;-58
2022/10/23 09:04:06;;;;;;;1.88;1.05;;;;;;;;;;5013598;28;20077;-58
2022/10/23 09:06:39;;;;;;;2.22;1.00;;;;;;;;;;5013436;28;20120;-55
2022/10/23 09:09:09;;;;;;;2.13;0.90;;;;;;;;;;5013490;28;20025;-56
2022/10/23 09:11:54;;;;;;;2.70;0.80;;;;;;;;;;5013436;28;20025;-59
2022/10/23 09:14:50;;;;;;;2.00;0.82;;;;;;;;;;5013389;28;20119;-60
2022/10/23 09:17:23;;;;;;;2.75;0.98;;;;;;;;;;4973834;28;20104;-59
2022/10/23 09:19:53;;;;;;;3.00;1.00;;;;;;;;;;5013295;28;20042;-59
2022/10/23 09:22:20;;;;;;;3.22;0.93;;;;;;;;;;5012888;28;20077;-59
2022/10/23 09:24:47;;;;;;;3.08;1.20;;;;;;;;;;5013075;28;20133;-58
2022/10/23 09:27:17;;;;;;;1.52;0.77;;;;;;;;;;5012981;28;20040;-59
2022/10/23 09:29:49;;;;;;;1.83;0.90;;;;;;;;;;5012341;28;20546;-58
2022/10/23 09:32:16;;;;;;;3.42;1.02;;;;;;;;;;5012946;28;20045;-59
2022/10/23 09:34:53;;;;;;;1.90;0.90;;;;;;;;;;5012829;28;20476;-59
2022/10/23 09:37:22;;;;;;;1.65;0.93;;;;;;;;;;5012851;28;20040;-57
2022/10/23 09:39:49;;;;;;;2.88;0.88;;;;;;;;;;5012941;28;20028;-58
2022/10/23 09:42:24;;;;;;;1.48;0.70;;;;;;;;;;5026051;28;20033;-57
2022/10/23 09:44:52;;;;;;;2.63;1.00;;;;;;;;;;5012611;28;20100;-58
2022/10/23 09:47:21;;;;;;;1.90;0.75;;;;;;;;;;5012889;28;20121;-58
2022/10/23 09:49:50;;;;;;;3.08;1.00;;;;;;;;;;5012390;28;20065;-57
2022/10/23 09:52:16;;;;;;;2.15;1.05;;;;;;;;;;5012674;28;20033;-57
2022/10/23 09:54:47;;;;;;;1.83;0.90;;;;;;;;;;5012450;28;20104;-58
2022/10/23 09:57:34;;;;;;;2.65;0.80;;;;;;;;;;5012703;28;20435;-54
2022/10/23 10:00:02;;;;;;;2.15;0.80;;;;;;;;;;5012426;28;20406;-59
2022/10/23 10:02:31;;;;;;;1.80;0.90;;;;;;;;;;5012483;28;20472;-57
2022/10/23 10:04:58;;;;;;;2.97;0.90;;;;;;;;;;5012243;28;20506;-58
2022/10/23 10:07:26;;;;;;;2.13;0.85;;;;;;;;;;5012324;28;20037;-58
2022/10/23 10:09:54;;;;;;;1.80;0.70;;;;;;;;;;5012509;28;20030;-58
2022/10/23 10:12:42;;;;;;;1.45;0.52;;;;;;;;;;5012386;28;20038;-60
2022/10/23 10:15:18;;;;;;;2.65;1.00;;;;;;;;;;5012006;28;20435;-55
2022/10/23 10:17:57;;;;;;;2.05;0.90;;;;;;;;;;5012375;28;20395;-57
2022/10/23 10:20:32;;;;;;;2.35;1.00;;;;;;;;;;5012016;28;20050;-57
2022/10/23 10:22:59;;;;;;;1.38;0.73;;;;;;;;;;5012302;28;20069;-58
2022/10/23 10:25:30;;;;;;;2.72;0.85;;;;;;;;;;5011983;28;20084;-58
2022/10/23 10:28:03;;;;;;;4.53;0.97;;;;;;;;;;5012327;28;20117;-58
2022/10/23 10:30:36;;;;;;;1.63;0.70;;;;;;;;;;5011861;28;20647;-59
2022/10/23 10:33:03;;;;;;;1.88;0.70;;;;;;;;;;5012127;28;20022;-57
2022/10/23 10:35:49;;;;;;;1.00;0.60;;;;;;;;;;5011989;28;20037;-58
2022/10/23 10:38:29;;;;;;;3.72;0.75;;;;;;;;;;5012153;28;20038;-57
2022/10/23 10:41:20;;;;;;;1.52;0.70;;;;;;;;;;5011676;28;20038;-58
2022/10/23 10:43:54;;;;;;;0.98;0.47;;;;;;;;;;5012052;28;20698;-58
2022/10/23 10:46:29;;;;;;;1.33;0.60;;;;;;;;;;5011629;28;20101;-57
2022/10/23 10:48:56;;;;;;;1.60;0.80;;;;;;;;;;5026776;28;20488;-58
2022/10/23 10:51:34;;;;;;;1.73;0.80;;;;;;;;;;5011800;28;20070;-58
2022/10/23 10:54:01;;;;;;;2.45;0.82;;;;;;;;;;5006330;28;20053;-58
2022/10/23 10:56:31;;;;;;;2.05;0.70;;;;;;;;;;5026864;28;20104;-58
2022/10/23 10:59:01;;;;;;;0.93;0.60;;;;;;;;;;5011741;28;20030;-59
2022/10/23 11:01:33;;;;;;;2.90;0.75;;;;;;;;;;5011658;28;20058;-58
2022/10/23 11:04:05;;;;;;;3.60;1.10;;;;;;;;;;5012089;28;20029;-58
2022/10/23 11:06:35;;;;;;;2.33;0.95;;;;;;;;;;5011801;28;20113;-58
2022/10/23 11:09:05;;;;;;;2.50;0.70;;;;;;;;;;5011605;28;20484;-58
2022/10/23 11:11:32;;;;;;;2.85;0.90;;;;;;;;;;5011691;28;20488;-58
2022/10/23 11:13:59;;;;;;;1.80;0.70;;;;;;;;;;5011702;28;20092;-58
2022/10/23 11:16:31;;;;;;;1.10;0.70;;;;;;;;;;5011618;28;20040;-58
2022/10/23 11:19:16;;;;;;;3.13;1.00;;;;;;;;;;5011312;28;20116;-58
2022/10/23 11:21:52;;;;;;;1.30;0.60;;;;;;;;;;5019080;28;20392;-57
2022/10/23 11:24:41;;;;;;;1.75;0.80;;;;;;;;;;5011244;28;20038;-59
2022/10/23 11:27:10;;;;;;;2.92;0.90;;;;;;;;;;5011480;28;20053;-59
2022/10/23 11:29:39;;;;;;;1.65;0.73;;;;;;;;;;5011406;28;20030;-58
2022/10/23 11:32:11;;;;;;;1.10;0.50;;;;;;;;;;5011522;28;20783;-58
2022/10/23 11:34:50;;;;;;;1.80;0.75;;;;;;;;;;5011566;28;20030;-59
2022/10/23 11:37:19;;;;;;;3.22;1.08;;;;;;;;;;5011483;28;20029;-58
2022/10/23 11:39:58;;;;;;;2.58;0.75;;;;;;;;;;5011420;28;20507;-58
2022/10/23 11:42:33;;;;;;;1.85;0.60;;;;;;;;;;5011304;28;20034;-58
2022/10/23 11:45:00;;;;;;;2.25;0.73;;;;;;;;;;5011396;28;20037;-58
2022/10/23 11:47:34;;;;;;;2.20;0.80;;;;;;;;;;5011338;28;20061;-59
2022/10/23 11:50:07;;;;;;;2.42;0.70;;;;;;;;;;5011361;28;20029;-58
2022/10/23 11:52:39;;;;;;;3.67;0.80;;;;;;;;;;5012180;28;20037;-60
2022/10/23 11:55:19;;;;;;;1.98;0.80;;;;;;;;;;5017898;28;20037;-54
2022/10/23 11:58:05;;;;;;;1.90;0.80;;;;;;;;;;5023646;28;20063;-59
2022/10/23 12:00:33;;;;;;;2.17;0.80;;;;;;;;;;5016354;28;20380;-58
2022/10/23 12:03:00;;;;;;;1.70;0.65;;;;;;;;;;5022509;28;20074;-57
2022/10/23 12:05:36;;;;;;;1.67;0.60;;;;;;;;;;5014543;28;20080;-59
2022/10/23 12:08:05;;;;;;;1.58;0.60;;;;;;;;;;5014646;28;20491;-58
2022/10/23 12:10:36;;;;;;;1.63;0.68;;;;;;;;;;5014461;28;20514;-58
2022/10/23 12:13:23;;;;;;;2.13;0.70;;;;;;;;;;5014463;28;20057;-58
2022/10/23 12:15:54;;;;;;;0.90;0.50;;;;;;;;;;5014522;28;20034;-57
2022/10/23 12:18:21;;;;;;;1.38;0.60;;;;;;;;;;5014657;28;20037;-59
2022/10/23 12:20:48;;;;;;;2.13;0.90;;;;;;;;;;5014189;28;20066;-58
2022/10/23 12:23:36;;;;;;;1.63;0.55;;;;;;;;;;5014085;28;20048;-56
2022/10/23 12:26:05;;;;;;;1.30;0.70;;;;;;;;;;5014197;28;20036;-58
2022/10/23 12:28:51;;;;;;;1.98;0.90;;;;;;;;;;5014178;28;20037;-57
2022/10/23 12:31:18;;;;;;;2.00;0.75;;;;;;;;;;5027552;28;20399;-59
2022/10/23 12:33:53;;;;;;;1.45;0.70;;;;;;;;;;5014316;28;20030;-59
2022/10/23 12:36:21;;;;;;;1.20;0.63;;;;;;;;;;5021709;28;20047;-58
2022/10/23 12:38:49;;;;;;;1.33;0.57;;;;;;;;;;5031849;28;20499;-56
2022/10/23 12:41:25;;;;;;;1.48;0.60;;;;;;;;;;5030330;28;20039;-58
2022/10/23 12:43:54;;;;;;;1.83;0.90;;;;;;;;;;5031467;28;20045;-56
2022/10/23 12:46:40;;;;;;;1.52;0.50;;;;;;;;;;5031580;28;20110;-57
2022/10/23 12:49:15;;;;;;;1.30;0.60;;;;;;;;;;5023689;28;20026;-58
2022/10/23 12:51:42;;;;;;;2.08;0.60;;;;;;;;;;5018551;28;20053;-59
2022/10/23 12:54:19;;;;;;;5.30;0.98;;;;;;;;;;5020750;28;20037;-58
2022/10/23 12:56:46;;;;;;;1.73;0.80;;;;;;;;;;5026561;28;20044;-58
2022/10/23 12:59:19;;;;;;;1.70;0.50;;;;;;;;;;5018853;28;20096;-58
2022/10/23 13:01:46;;;;;;;1.77;0.60;;;;;;;;;;5013299;28;20041;-57
2022/10/23 13:04:19;;;;;;;3.05;0.80;;;;;;;;;;5012884;28;20408;-59
2022/10/23 13:06:47;;;;;;;1.92;0.65;;;;;;;;;;5018497;28;20121;-59
2022/10/23 13:09:43;;;;;;;2.65;0.60;;;;;;;;;;5013185;28;20749;-57
2022/10/23 13:12:16;;;;;;;2.78;0.88;;;;;;;;;;5000878;28;20041;-59
2022/10/23 13:14:54;;;;;;;2.33;0.88;;;;;;;;;;5012956;28;20037;-57
2022/10/23 13:17:21;;;;;;;2.08;0.70;;;;;;;;;;5024163;28;20037;-58
2022/10/23 13:19:48;;;;;;;3.08;0.85;;;;;;;;;;5013846;28;20065;-58
2022/10/23 13:22:22;;;;;;;6.28;0.98;;;;;;;;;;5012994;28;20559;-58
2022/10/23 13:24:49;;;;;;;4.28;0.90;;;;;;;;;;5013277;28;20049;-59
2022/10/23 13:27:31;;;;;;;2.40;0.77;;;;;;;;;;5025975;28;20026;-58
2022/10/23 13:29:58;;;;;;;;;;;;;;;;;;5015899;28;20439;-59
2022/10/23 13:32:26;;;;;;;2.95;0.90;;;;;;;;;;5013077;28;19935;-59
2022/10/23 13:35:02;;;;;;;5.18;0.95;;;;;;;;;;5012727;28;20113;-58
2022/10/23 13:37:29;;;;;;;4.95;1.13;;;;;;;;;;5012856;28;20046;-58
2022/10/23 13:40:04;;;;;;;4.50;0.90;;;;;;;;;;5026538;28;20029;-59
2022/10/23 13:42:31;;;;;;;3.70;1.00;;;;;;;;;;5016398;28;20097;-58
2022/10/23 13:44:57;;;;;;;6.82;1.13;;;;;;;;;;5018349;28;20105;-59
2022/10/23 13:47:24;;;;;;;3.47;1.10;;;;;;;;;;5014729;28;20035;-57
2022/10/23 13:49:51;;;;;;;6.38;1.27;;;;;;;;;;5029632;28;20033;-58
2022/10/23 13:52:22;;;;;;;5.07;0.90;;;;;;;;;;5018480;28;20061;-59
2022/10/23 13:54:49;;;;;;;5.25;1.08;;;;;;;;;;5013041;28;20037;-59
2022/10/23 13:57:16;;;;;;;10.18;1.42;;;;;;;;;;5025164;28;20034;-59
2022/10/23 13:59:43;;;;;;;9.73;1.10;;;;;;;;;;5010833;28;20503;-58
2022/10/23 14:02:18;;;;;;;8.52;1.63;;;;;;;;;;5011252;28;20136;-55
2022/10/23 14:04:46;;;;;;;9.52;1.30;;;;;;;;;;5013908;28;20044;-59
2022/10/23 14:07:13;;;;;;;11.27;1.83;;;;;;;;;;5024136;28;20038;-58
2022/10/23 14:09:40;;;;;;;7.40;1.75;;;;;;;;;;5012232;28;20044;-57
2022/10/23 14:12:07;;;;;;;13.18;2.47;;;;;;;;;;5011960;28;20380;-53
2022/10/23 14:14:33;;;;;;;9.63;2.20;;;;;;;;;;5011389;28;20026;-58
2022/10/23 14:17:00;;;;;;;8.85;3.00;;;;;;;;;;5011370;28;20044;-57
2022/10/23 14:19:28;;;;;;;20.00;3.72;;;;;;;;;;5011971;28;20180;-59
2022/10/23 14:21:55;;;;;;;16.65;4.43;;;;;;;;;;5011751;28;20488;-58
2022/10/23 14:24:22;;;;;;;15.85;4.10;;;;;;;;;;5011968;28;20033;-54
2022/10/23 14:26:49;;;;;;;26.45;4.85;;;;;;;;;;5012006;28;20117;-59
2022/10/23 14:29:16;;;;;;;21.63;4.88;;;;;;;;;;5012076;28;20033;-59
2022/10/23 14:31:42;;;;;;;21.48;5.40;;;;;;;;;;5012128;28;20037;-59
2022/10/23 14:34:10;;;;;;;16.85;4.47;;;;;;;;;;5011730;28;20361;-59
2022/10/23 14:36:37;;;;;;;23.35;4.40;;;;;;;;;;5011820;28;20546;-57
2022/10/23 14:39:04;;;;;;;18.75;4.60;;;;;;;;;;5025750;28;20037;-57
2022/10/23 14:41:31;;;;;;;15.10;3.97;;;;;;;;;;5011997;28;20117;-59
2022/10/23 14:43:58;;;;;;;10.98;3.50;;;;;;;;;;5011527;28;20034;-59
2022/10/23 14:46:26;;;;;;;14.55;3.75;;;;;;;;;;5011926;28;20030;-58
2022/10/23 14:48:54;;;;;;;18.75;3.58;;;;;;;;;;5011709;28;20070;-52
2022/10/23 14:51:25;;;;;;;18.50;3.95;;;;;;;;;;5011899;28;20041;-59